sensor_id;sensor_type;location;lat;lon;timestamp;P1;durP1;ratioP1;P2;durP2;ratioP2
59607;SDS011;45426;44.726;10.390;2023-07-02T00:01:18;11.73;;;4.93;;
59607;SDS011;45426;44.726;10.390;2023-07-02T00:03:44;7.95;;;4.57;;
59607;SDS011;45426;44.726;10.390;2023-07-02T00:06:09;10.23;;;4.68;;
59607;SDS011;45426;44.726;10.390;2023-07-02T00:08:35;7.78;;;4.47;;
59607;SDS011;45426;44.726;10.390;2023-07-02T00:11:00;9.35;;;4.32;;
59607;SDS011;45426;44.726;10.390;2023-07-02T00:13:26;9.95;;;4.60;;
59607;SDS011;45426;44.726;10.390;2023-07-02T00:15:51;8.73;;;4.13;;
59607;SDS011;45426;44.726;10.390;2023-07-02T00:18:17;9.45;;;4.63;;
59607;SDS011;45426;44.726;10.390;2023-07-02T00:20:43;10.20;;;4.75;;
59607;SDS011;45426;44.726;10.390;2023-07-02T00:23:09;9.65;;;4.53;;
59607;SDS011;45426;44.726;10.390;2023-07-02T00:25:35;11.00;;;4.60;;
59607;SDS011;45426;44.726;10.390;2023-07-02T00:28:01;8.35;;;4.30;;
59607;SDS011;45426;44.726;10.390;2023-07-02T00:30:27;9.25;;;4.22;;
59607;SDS011;45426;44.726;10.390;2023-07-02T00:32:52;9.23;;;4.22;;
59607;SDS011;45426;44.726;10.390;2023-07-02T00:35:18;10.07;;;4.53;;
59607;SDS011;45426;44.726;10.390;2023-07-02T00:37:43;8.63;;;4.40;;
59607;SDS011;45426;44.726;10.390;2023-07-02T00:40:09;10.00;;;4.57;;
59607;SDS011;45426;44.726;10.390;2023-07-02T00:42:35;9.50;;;4.47;;
59607;SDS011;45426;44.726;10.390;2023-07-02T00:45:00;9.00;;;4.50;;
59607;SDS011;45426;44.726;10.390;2023-07-02T00:47:32;10.00;;;4.32;;
59607;SDS011;45426;44.726;10.390;2023-07-02T00:50:01;9.55;;;4.40;;
59607;SDS011;45426;44.726;10.390;2023-07-02T00:52:27;10.82;;;4.35;;
59607;SDS011;45426;44.726;10.390;2023-07-02T00:54:53;10.10;;;4.60;;
59607;SDS011;45426;44.726;10.390;2023-07-02T00:57:19;8.18;;;4.40;;
59607;SDS011;45426;44.726;10.390;2023-07-02T00:59:45;7.93;;;4.13;;
59607;SDS011;45426;44.726;10.390;2023-07-02T01:02:11;8.13;;;4.45;;
59607;SDS011;45426;44.726;10.390;2023-07-02T01:04:38;10.73;;;4.70;;
59607;SDS011;45426;44.726;10.390;2023-07-02T01:07:04;10.82;;;4.43;;
59607;SDS011;45426;44.726;10.390;2023-07-02T01:09:34;8.80;;;4.15;;
59607;SDS011;45426;44.726;10.390;2023-07-02T01:12:02;8.10;;;4.68;;
59607;SDS011;45426;44.726;10.390;2023-07-02T01:14:33;8.02;;;3.97;;
59607;SDS011;45426;44.726;10.390;2023-07-02T01:17:03;8.15;;;4.55;;
59607;SDS011;45426;44.726;10.390;2023-07-02T01:21:59;11.50;;;4.25;;
59607;SDS011;45426;44.726;10.390;2023-07-02T01:24:26;8.98;;;4.60;;
59607;SDS011;45426;44.726;10.390;2023-07-02T01:26:53;8.43;;;4.55;;
59607;SDS011;45426;44.726;10.390;2023-07-02T01:29:19;10.23;;;4.47;;
59607;SDS011;45426;44.726;10.390;2023-07-02T01:31:46;8.80;;;4.38;;
59607;SDS011;45426;44.726;10.390;2023-07-02T01:34:12;16.60;;;5.10;;
59607;SDS011;45426;44.726;10.390;2023-07-02T01:36:38;8.95;;;4.20;;
59607;SDS011;45426;44.726;10.390;2023-07-02T01:39:04;10.43;;;4.68;;
59607;SDS011;45426;44.726;10.390;2023-07-02T01:41:36;8.63;;;4.55;;
59607;SDS011;45426;44.726;10.390;2023-07-02T01:44:03;11.40;;;4.32;;
59607;SDS011;45426;44.726;10.390;2023-07-02T01:46:29;11.02;;;4.45;;
59607;SDS011;45426;44.726;10.390;2023-07-02T01:48:54;10.40;;;4.45;;
59607;SDS011;45426;44.726;10.390;2023-07-02T01:51:20;9.50;;;4.47;;
59607;SDS011;45426;44.726;10.390;2023-07-02T01:53:46;7.82;;;4.18;;
59607;SDS011;45426;44.726;10.390;2023-07-02T01:56:11;8.45;;;4.10;;
59607;SDS011;45426;44.726;10.390;2023-07-02T01:58:37;8.50;;;4.03;;
59607;SDS011;45426;44.726;10.390;2023-07-02T02:01:02;8.75;;;4.20;;
59607;SDS011;45426;44.726;10.390;2023-07-02T02:03:28;10.05;;;4.53;;
59607;SDS011;45426;44.726;10.390;2023-07-02T02:05:53;9.25;;;4.07;;
59607;SDS011;45426;44.726;10.390;2023-07-02T02:08:19;8.18;;;4.40;;
59607;SDS011;45426;44.726;10.390;2023-07-02T02:10:44;7.38;;;4.30;;
59607;SDS011;45426;44.726;10.390;2023-07-02T02:13:10;8.50;;;4.45;;
59607;SDS011;45426;44.726;10.390;2023-07-02T02:15:35;8.88;;;4.50;;
59607;SDS011;45426;44.726;10.390;2023-07-02T02:18:01;8.48;;;4.10;;
59607;SDS011;45426;44.726;10.390;2023-07-02T02:20:30;8.00;;;4.10;;
59607;SDS011;45426;44.726;10.390;2023-07-02T02:22:56;13.25;;;4.63;;
59607;SDS011;45426;44.726;10.390;2023-07-02T02:25:21;7.82;;;4.00;;
59607;SDS011;45426;44.726;10.390;2023-07-02T02:27:47;12.13;;;4.43;;
59607;SDS011;45426;44.726;10.390;2023-07-02T02:30:12;9.50;;;4.00;;
59607;SDS011;45426;44.726;10.390;2023-07-02T02:32:38;11.00;;;4.20;;
59607;SDS011;45426;44.726;10.390;2023-07-02T02:35:03;8.70;;;4.25;;
59607;SDS011;45426;44.726;10.390;2023-07-02T02:37:29;8.85;;;3.83;;
59607;SDS011;45426;44.726;10.390;2023-07-02T02:39:55;6.63;;;3.60;;
59607;SDS011;45426;44.726;10.390;2023-07-02T02:42:22;9.82;;;4.35;;
59607;SDS011;45426;44.726;10.390;2023-07-02T02:44:50;11.02;;;4.60;;
59607;SDS011;45426;44.726;10.390;2023-07-02T02:47:15;9.23;;;4.30;;
59607;SDS011;45426;44.726;10.390;2023-07-02T02:49:41;13.02;;;4.50;;
59607;SDS011;45426;44.726;10.390;2023-07-02T02:52:06;12.05;;;4.85;;
59607;SDS011;45426;44.726;10.390;2023-07-02T02:54:35;10.60;;;5.07;;
59607;SDS011;45426;44.726;10.390;2023-07-02T02:57:00;9.38;;;4.60;;
59607;SDS011;45426;44.726;10.390;2023-07-02T02:59:25;10.15;;;4.68;;
59607;SDS011;45426;44.726;10.390;2023-07-02T03:01:51;8.98;;;4.82;;
59607;SDS011;45426;44.726;10.390;2023-07-02T03:04:16;9.85;;;4.70;;
59607;SDS011;45426;44.726;10.390;2023-07-02T03:06:42;13.63;;;6.00;;
59607;SDS011;45426;44.726;10.390;2023-07-02T03:09:08;11.30;;;5.50;;
59607;SDS011;45426;44.726;10.390;2023-07-02T03:11:33;8.88;;;4.93;;
59607;SDS011;45426;44.726;10.390;2023-07-02T03:13:58;12.73;;;4.93;;
59607;SDS011;45426;44.726;10.390;2023-07-02T03:16:24;10.73;;;4.75;;
59607;SDS011;45426;44.726;10.390;2023-07-02T03:18:49;9.40;;;4.72;;
59607;SDS011;45426;44.726;10.390;2023-07-02T03:21:16;10.75;;;4.80;;
59607;SDS011;45426;44.726;10.390;2023-07-02T03:23:41;10.63;;;4.78;;
59607;SDS011;45426;44.726;10.390;2023-07-02T03:26:07;9.50;;;4.75;;
59607;SDS011;45426;44.726;10.390;2023-07-02T03:28:32;9.18;;;4.70;;
59607;SDS011;45426;44.726;10.390;2023-07-02T03:30:59;10.50;;;4.63;;
59607;SDS011;45426;44.726;10.390;2023-07-02T03:33:25;10.45;;;4.78;;
59607;SDS011;45426;44.726;10.390;2023-07-02T03:35:50;8.15;;;4.50;;
59607;SDS011;45426;44.726;10.390;2023-07-02T03:38:16;9.85;;;4.53;;
59607;SDS011;45426;44.726;10.390;2023-07-02T03:40:41;9.40;;;4.72;;
59607;SDS011;45426;44.726;10.390;2023-07-02T03:43:07;7.90;;;4.20;;
59607;SDS011;45426;44.726;10.390;2023-07-02T03:45:32;8.90;;;4.60;;
59607;SDS011;45426;44.726;10.390;2023-07-02T03:47:58;10.23;;;4.20;;
59607;SDS011;45426;44.726;10.390;2023-07-02T03:50:23;8.65;;;4.07;;
59607;SDS011;45426;44.726;10.390;2023-07-02T03:52:49;7.50;;;4.00;;
59607;SDS011;45426;44.726;10.390;2023-07-02T03:55:14;7.88;;;4.03;;
59607;SDS011;45426;44.726;10.390;2023-07-02T03:57:40;8.48;;;3.88;;
59607;SDS011;45426;44.726;10.390;2023-07-02T04:00:05;10.57;;;4.10;;
59607;SDS011;45426;44.726;10.390;2023-07-02T04:02:32;7.45;;;3.33;;
59607;SDS011;45426;44.726;10.390;2023-07-02T04:04:58;9.52;;;3.40;;
59607;SDS011;45426;44.726;10.390;2023-07-02T04:07:23;6.43;;;3.25;;
59607;SDS011;45426;44.726;10.390;2023-07-02T04:09:49;9.57;;;3.78;;
59607;SDS011;45426;44.726;10.390;2023-07-02T04:12:14;9.18;;;3.40;;
59607;SDS011;45426;44.726;10.390;2023-07-02T04:14:40;9.85;;;3.40;;
59607;SDS011;45426;44.726;10.390;2023-07-02T04:17:05;6.60;;;3.20;;
59607;SDS011;45426;44.726;10.390;2023-07-02T04:19:31;6.40;;;3.20;;
59607;SDS011;45426;44.726;10.390;2023-07-02T04:21:56;7.82;;;3.67;;
59607;SDS011;45426;44.726;10.390;2023-07-02T04:24:22;6.50;;;3.22;;
59607;SDS011;45426;44.726;10.390;2023-07-02T04:26:47;7.40;;;3.15;;
59607;SDS011;45426;44.726;10.390;2023-07-02T04:29:13;6.95;;;3.47;;
59607;SDS011;45426;44.726;10.390;2023-07-02T04:31:38;5.40;;;3.03;;
59607;SDS011;45426;44.726;10.390;2023-07-02T04:34:04;7.05;;;3.38;;
59607;SDS011;45426;44.726;10.390;2023-07-02T04:36:30;8.43;;;3.67;;
59607;SDS011;45426;44.726;10.390;2023-07-02T04:38:56;6.68;;;3.90;;
59607;SDS011;45426;44.726;10.390;2023-07-02T04:41:22;7.07;;;3.40;;
59607;SDS011;45426;44.726;10.390;2023-07-02T04:43:47;6.97;;;3.13;;
59607;SDS011;45426;44.726;10.390;2023-07-02T04:46:15;7.60;;;3.22;;
59607;SDS011;45426;44.726;10.390;2023-07-02T04:48:42;6.72;;;3.38;;
59607;SDS011;45426;44.726;10.390;2023-07-02T04:51:08;6.80;;;3.15;;
59607;SDS011;45426;44.726;10.390;2023-07-02T04:53:33;8.70;;;3.60;;
59607;SDS011;45426;44.726;10.390;2023-07-02T04:55:59;7.45;;;3.33;;
59607;SDS011;45426;44.726;10.390;2023-07-02T04:58:24;8.05;;;3.30;;
59607;SDS011;45426;44.726;10.390;2023-07-02T05:00:50;7.82;;;3.28;;
59607;SDS011;45426;44.726;10.390;2023-07-02T05:03:15;8.60;;;3.33;;
59607;SDS011;45426;44.726;10.390;2023-07-02T05:05:41;7.00;;;3.03;;
59607;SDS011;45426;44.726;10.390;2023-07-02T05:08:06;9.23;;;3.40;;
59607;SDS011;45426;44.726;10.390;2023-07-02T05:10:32;6.20;;;3.10;;
59607;SDS011;45426;44.726;10.390;2023-07-02T05:12:57;8.20;;;3.55;;
59607;SDS011;45426;44.726;10.390;2023-07-02T05:15:23;7.05;;;3.15;;
59607;SDS011;45426;44.726;10.390;2023-07-02T05:17:49;6.57;;;3.35;;
59607;SDS011;45426;44.726;10.390;2023-07-02T05:20:14;5.55;;;3.13;;
59607;SDS011;45426;44.726;10.390;2023-07-02T05:22:40;6.47;;;3.17;;
59607;SDS011;45426;44.726;10.390;2023-07-02T05:25:05;7.70;;;3.42;;
59607;SDS011;45426;44.726;10.390;2023-07-02T05:27:31;6.35;;;3.30;;
59607;SDS011;45426;44.726;10.390;2023-07-02T05:29:57;5.65;;;3.10;;
59607;SDS011;45426;44.726;10.390;2023-07-02T05:32:22;8.52;;;3.20;;
59607;SDS011;45426;44.726;10.390;2023-07-02T05:34:48;8.30;;;3.10;;
59607;SDS011;45426;44.726;10.390;2023-07-02T05:37:13;6.38;;;3.10;;
59607;SDS011;45426;44.726;10.390;2023-07-02T05:39:39;8.38;;;3.40;;
59607;SDS011;45426;44.726;10.390;2023-07-02T05:42:04;7.05;;;3.20;;
59607;SDS011;45426;44.726;10.390;2023-07-02T05:44:30;6.32;;;3.20;;
59607;SDS011;45426;44.726;10.390;2023-07-02T05:46:55;6.32;;;3.10;;
59607;SDS011;45426;44.726;10.390;2023-07-02T05:49:20;5.30;;;2.78;;
59607;SDS011;45426;44.726;10.390;2023-07-02T05:51:46;5.28;;;2.90;;
59607;SDS011;45426;44.726;10.390;2023-07-02T05:54:11;5.30;;;2.60;;
59607;SDS011;45426;44.726;10.390;2023-07-02T05:56:37;6.38;;;3.05;;
59607;SDS011;45426;44.726;10.390;2023-07-02T05:59:02;6.10;;;2.80;;
59607;SDS011;45426;44.726;10.390;2023-07-02T06:01:28;5.72;;;2.80;;
59607;SDS011;45426;44.726;10.390;2023-07-02T06:03:53;5.88;;;3.10;;
59607;SDS011;45426;44.726;10.390;2023-07-02T06:06:19;5.88;;;2.90;;
59607;SDS011;45426;44.726;10.390;2023-07-02T06:08:45;7.38;;;3.20;;
59607;SDS011;45426;44.726;10.390;2023-07-02T06:11:13;6.10;;;2.92;;
59607;SDS011;45426;44.726;10.390;2023-07-02T06:13:38;5.45;;;2.70;;
59607;SDS011;45426;44.726;10.390;2023-07-02T06:16:06;5.07;;;3.00;;
59607;SDS011;45426;44.726;10.390;2023-07-02T06:18:31;6.20;;;2.90;;
59607;SDS011;45426;44.726;10.390;2023-07-02T06:20:57;5.55;;;2.80;;
59607;SDS011;45426;44.726;10.390;2023-07-02T06:23:22;6.45;;;3.10;;
59607;SDS011;45426;44.726;10.390;2023-07-02T06:25:48;7.93;;;2.75;;
59607;SDS011;45426;44.726;10.390;2023-07-02T06:28:13;5.40;;;2.92;;
59607;SDS011;45426;44.726;10.390;2023-07-02T06:30:39;5.80;;;3.10;;
59607;SDS011;45426;44.726;10.390;2023-07-02T06:33:04;5.43;;;2.95;;
59607;SDS011;45426;44.726;10.390;2023-07-02T06:35:30;6.45;;;3.10;;
59607;SDS011;45426;44.726;10.390;2023-07-02T06:37:55;8.60;;;3.35;;
59607;SDS011;45426;44.726;10.390;2023-07-02T06:40:21;7.30;;;3.00;;
59607;SDS011;45426;44.726;10.390;2023-07-02T06:42:49;4.72;;;2.88;;
59607;SDS011;45426;44.726;10.390;2023-07-02T06:45:15;5.93;;;2.90;;
59607;SDS011;45426;44.726;10.390;2023-07-02T06:47:40;6.95;;;3.22;;
59607;SDS011;45426;44.726;10.390;2023-07-02T06:50:06;7.15;;;2.80;;
59607;SDS011;45426;44.726;10.390;2023-07-02T06:52:32;5.50;;;2.80;;
59607;SDS011;45426;44.726;10.390;2023-07-02T06:54:57;6.10;;;2.95;;
59607;SDS011;45426;44.726;10.390;2023-07-02T06:57:25;5.28;;;2.97;;
59607;SDS011;45426;44.726;10.390;2023-07-02T06:59:51;5.55;;;2.97;;
59607;SDS011;45426;44.726;10.390;2023-07-02T07:02:16;5.95;;;2.80;;
59607;SDS011;45426;44.726;10.390;2023-07-02T07:04:42;6.38;;;3.03;;
59607;SDS011;45426;44.726;10.390;2023-07-02T07:07:07;6.50;;;3.40;;
59607;SDS011;45426;44.726;10.390;2023-07-02T07:09:33;7.00;;;3.05;;
59607;SDS011;45426;44.726;10.390;2023-07-02T07:11:58;5.55;;;3.30;;
59607;SDS011;45426;44.726;10.390;2023-07-02T07:14:24;7.88;;;3.00;;
59607;SDS011;45426;44.726;10.390;2023-07-02T07:16:49;5.65;;;3.13;;
59607;SDS011;45426;44.726;10.390;2023-07-02T07:19:15;6.55;;;3.30;;
59607;SDS011;45426;44.726;10.390;2023-07-02T07:21:44;5.47;;;3.20;;
59607;SDS011;45426;44.726;10.390;2023-07-02T07:24:10;7.80;;;3.70;;
59607;SDS011;45426;44.726;10.390;2023-07-02T07:26:35;6.95;;;3.53;;
59607;SDS011;45426;44.726;10.390;2023-07-02T07:29:01;7.68;;;3.35;;
59607;SDS011;45426;44.726;10.390;2023-07-02T07:31:26;6.50;;;3.47;;
59607;SDS011;45426;44.726;10.390;2023-07-02T07:33:52;6.72;;;3.50;;
59607;SDS011;45426;44.726;10.390;2023-07-02T07:36:17;5.28;;;3.40;;
59607;SDS011;45426;44.726;10.390;2023-07-02T07:38:43;10.77;;;3.53;;
59607;SDS011;45426;44.726;10.390;2023-07-02T07:41:11;7.03;;;3.80;;
59607;SDS011;45426;44.726;10.390;2023-07-02T07:43:36;6.30;;;3.53;;
59607;SDS011;45426;44.726;10.390;2023-07-02T07:46:02;5.90;;;3.45;;
59607;SDS011;45426;44.726;10.390;2023-07-02T07:48:27;6.78;;;3.47;;
59607;SDS011;45426;44.726;10.390;2023-07-02T07:50:53;5.63;;;2.90;;
59607;SDS011;45426;44.726;10.390;2023-07-02T07:53:18;6.03;;;3.50;;
59607;SDS011;45426;44.726;10.390;2023-07-02T07:55:44;7.40;;;3.92;;
59607;SDS011;45426;44.726;10.390;2023-07-02T07:58:09;6.55;;;3.50;;
59607;SDS011;45426;44.726;10.390;2023-07-02T08:00:35;4.93;;;3.28;;
59607;SDS011;45426;44.726;10.390;2023-07-02T08:03:01;6.28;;;3.45;;
59607;SDS011;45426;44.726;10.390;2023-07-02T08:05:28;6.78;;;3.58;;
59607;SDS011;45426;44.726;10.390;2023-07-02T08:07:54;7.78;;;3.40;;
59607;SDS011;45426;44.726;10.390;2023-07-02T08:10:20;6.03;;;3.63;;
59607;SDS011;45426;44.726;10.390;2023-07-02T08:12:45;6.60;;;3.53;;
59607;SDS011;45426;44.726;10.390;2023-07-02T08:15:12;7.28;;;3.40;;
59607;SDS011;45426;44.726;10.390;2023-07-02T08:17:38;7.38;;;3.60;;
59607;SDS011;45426;44.726;10.390;2023-07-02T08:20:04;6.25;;;3.42;;
59607;SDS011;45426;44.726;10.390;2023-07-02T08:22:32;6.22;;;3.40;;
59607;SDS011;45426;44.726;10.390;2023-07-02T08:24:57;7.95;;;3.53;;
59607;SDS011;45426;44.726;10.390;2023-07-02T08:27:23;6.45;;;3.58;;
59607;SDS011;45426;44.726;10.390;2023-07-02T08:29:48;6.78;;;3.70;;
59607;SDS011;45426;44.726;10.390;2023-07-02T08:32:14;7.75;;;3.50;;
59607;SDS011;45426;44.726;10.390;2023-07-02T08:34:40;6.25;;;3.60;;
59607;SDS011;45426;44.726;10.390;2023-07-02T08:37:06;7.95;;;3.60;;
59607;SDS011;45426;44.726;10.390;2023-07-02T08:39:34;6.15;;;3.53;;
59607;SDS011;45426;44.726;10.390;2023-07-02T08:42:01;8.35;;;3.70;;
59607;SDS011;45426;44.726;10.390;2023-07-02T08:44:26;7.07;;;3.65;;
59607;SDS011;45426;44.726;10.390;2023-07-02T08:46:52;7.03;;;3.80;;
59607;SDS011;45426;44.726;10.390;2023-07-02T08:49:20;7.13;;;3.90;;
59607;SDS011;45426;44.726;10.390;2023-07-02T08:51:46;8.00;;;3.70;;
59607;SDS011;45426;44.726;10.390;2023-07-02T08:54:13;6.97;;;3.83;;
59607;SDS011;45426;44.726;10.390;2023-07-02T08:56:39;7.32;;;3.65;;
59607;SDS011;45426;44.726;10.390;2023-07-02T08:59:09;7.43;;;3.70;;
59607;SDS011;45426;44.726;10.390;2023-07-02T09:01:47;7.40;;;3.90;;
59607;SDS011;45426;44.726;10.390;2023-07-02T09:04:26;6.15;;;3.65;;
59607;SDS011;45426;44.726;10.390;2023-07-02T09:07:03;6.18;;;3.42;;
59607;SDS011;45426;44.726;10.390;2023-07-02T09:09:33;6.85;;;3.97;;
59607;SDS011;45426;44.726;10.390;2023-07-02T09:15:07;7.82;;;3.90;;
59607;SDS011;45426;44.726;10.390;2023-07-02T09:17:34;7.82;;;4.10;;
59607;SDS011;45426;44.726;10.390;2023-07-02T09:20:10;7.85;;;4.30;;
59607;SDS011;45426;44.726;10.390;2023-07-02T09:22:36;7.93;;;4.25;;
59607;SDS011;45426;44.726;10.390;2023-07-02T09:25:04;9.07;;;4.43;;
59607;SDS011;45426;44.726;10.390;2023-07-02T09:27:39;8.05;;;4.32;;
59607;SDS011;45426;44.726;10.390;2023-07-02T09:30:13;9.65;;;4.60;;
59607;SDS011;45426;44.726;10.390;2023-07-02T09:32:48;8.02;;;4.60;;
59607;SDS011;45426;44.726;10.390;2023-07-02T09:35:14;9.27;;;4.80;;
59607;SDS011;45426;44.726;10.390;2023-07-02T09:37:42;7.63;;;4.22;;
59607;SDS011;45426;44.726;10.390;2023-07-02T09:46:35;7.38;;;4.03;;
59607;SDS011;45426;44.726;10.390;2023-07-02T09:52:25;7.88;;;4.00;;
59607;SDS011;45426;44.726;10.390;2023-07-02T09:55:24;7.22;;;3.88;;
59607;SDS011;45426;44.726;10.390;2023-07-02T10:01:30;10.30;;;4.65;;
59607;SDS011;45426;44.726;10.390;2023-07-02T10:07:01;8.65;;;4.32;;
59607;SDS011;45426;44.726;10.390;2023-07-02T10:09:48;10.23;;;4.30;;
59607;SDS011;45426;44.726;10.390;2023-07-02T10:12:28;7.78;;;3.95;;
59607;SDS011;45426;44.726;10.390;2023-07-02T10:32:37;8.30;;;4.00;;
59607;SDS011;45426;44.726;10.390;2023-07-02T10:42:33;7.63;;;4.00;;
59607;SDS011;45426;44.726;10.390;2023-07-02T10:48:56;7.00;;;3.85;;
59607;SDS011;45426;44.726;10.390;2023-07-02T10:51:22;6.18;;;3.75;;
59607;SDS011;45426;44.726;10.390;2023-07-02T10:54:00;6.22;;;3.60;;
59607;SDS011;45426;44.726;10.390;2023-07-02T10:56:29;7.07;;;3.90;;
59607;SDS011;45426;44.726;10.390;2023-07-02T11:02:37;5.97;;;3.40;;
59607;SDS011;45426;44.726;10.390;2023-07-02T11:05:12;6.30;;;3.80;;
59607;SDS011;45426;44.726;10.390;2023-07-02T11:07:39;6.70;;;3.60;;
59607;SDS011;45426;44.726;10.390;2023-07-02T11:10:05;5.93;;;3.50;;
59607;SDS011;45426;44.726;10.390;2023-07-02T11:12:31;6.13;;;4.07;;
59607;SDS011;45426;44.726;10.390;2023-07-02T11:18:09;7.32;;;4.05;;
59607;SDS011;45426;44.726;10.390;2023-07-02T11:20:41;7.32;;;3.90;;
59607;SDS011;45426;44.726;10.390;2023-07-02T11:23:21;7.40;;;3.72;;
59607;SDS011;45426;44.726;10.390;2023-07-02T11:25:57;6.82;;;3.80;;
59607;SDS011;45426;44.726;10.390;2023-07-02T11:28:23;6.78;;;3.85;;
59607;SDS011;45426;44.726;10.390;2023-07-02T11:30:49;6.82;;;3.63;;
59607;SDS011;45426;44.726;10.390;2023-07-02T11:33:15;7.80;;;3.60;;
59607;SDS011;45426;44.726;10.390;2023-07-02T11:35:40;6.85;;;3.72;;
59607;SDS011;45426;44.726;10.390;2023-07-02T11:38:08;5.88;;;3.40;;
59607;SDS011;45426;44.726;10.390;2023-07-02T11:40:35;6.95;;;3.65;;
59607;SDS011;45426;44.726;10.390;2023-07-02T11:43:01;6.25;;;3.58;;
59607;SDS011;45426;44.726;10.390;2023-07-02T11:45:27;7.65;;;3.90;;
59607;SDS011;45426;44.726;10.390;2023-07-02T11:47:53;8.02;;;3.95;;
59607;SDS011;45426;44.726;10.390;2023-07-02T11:50:18;6.75;;;3.83;;
59607;SDS011;45426;44.726;10.390;2023-07-02T11:52:44;7.38;;;4.05;;
59607;SDS011;45426;44.726;10.390;2023-07-02T11:55:11;6.68;;;3.53;;
59607;SDS011;45426;44.726;10.390;2023-07-02T11:57:39;6.22;;;3.70;;
59607;SDS011;45426;44.726;10.390;2023-07-02T12:00:05;7.70;;;3.80;;
59607;SDS011;45426;44.726;10.390;2023-07-02T12:02:34;6.63;;;3.80;;
59607;SDS011;45426;44.726;10.390;2023-07-02T12:04:59;9.40;;;3.97;;
59607;SDS011;45426;44.726;10.390;2023-07-02T12:07:25;6.90;;;3.72;;
59607;SDS011;45426;44.726;10.390;2023-07-02T12:09:50;6.85;;;3.60;;
59607;SDS011;45426;44.726;10.390;2023-07-02T12:12:16;7.25;;;3.45;;
59607;SDS011;45426;44.726;10.390;2023-07-02T12:14:41;7.00;;;3.72;;
59607;SDS011;45426;44.726;10.390;2023-07-02T12:17:09;5.50;;;3.38;;
59607;SDS011;45426;44.726;10.390;2023-07-02T12:19:43;6.88;;;3.55;;
59607;SDS011;45426;44.726;10.390;2023-07-02T12:22:11;5.93;;;3.60;;
59607;SDS011;45426;44.726;10.390;2023-07-02T12:24:42;5.65;;;3.75;;
59607;SDS011;45426;44.726;10.390;2023-07-02T12:27:08;6.70;;;3.67;;
59607;SDS011;45426;44.726;10.390;2023-07-02T12:29:37;6.20;;;3.45;;
59607;SDS011;45426;44.726;10.390;2023-07-02T12:34:36;7.63;;;3.50;;
59607;SDS011;45426;44.726;10.390;2023-07-02T12:37:09;6.38;;;3.60;;
59607;SDS011;45426;44.726;10.390;2023-07-02T12:39:34;5.57;;;3.25;;
59607;SDS011;45426;44.726;10.390;2023-07-02T12:42:00;6.15;;;3.22;;
59607;SDS011;45426;44.726;10.390;2023-07-02T12:44:35;5.88;;;3.50;;
59607;SDS011;45426;44.726;10.390;2023-07-02T12:47:01;5.97;;;3.53;;
59607;SDS011;45426;44.726;10.390;2023-07-02T12:49:26;5.57;;;3.65;;
59607;SDS011;45426;44.726;10.390;2023-07-02T12:51:52;5.65;;;3.55;;
59607;SDS011;45426;44.726;10.390;2023-07-02T12:54:20;6.75;;;3.58;;
59607;SDS011;45426;44.726;10.390;2023-07-02T12:56:56;6.28;;;3.50;;
59607;SDS011;45426;44.726;10.390;2023-07-02T12:59:24;6.05;;;3.67;;
59607;SDS011;45426;44.726;10.390;2023-07-02T13:01:53;6.60;;;3.40;;
59607;SDS011;45426;44.726;10.390;2023-07-02T13:04:21;5.35;;;3.40;;
59607;SDS011;45426;44.726;10.390;2023-07-02T13:06:47;5.90;;;3.53;;
59607;SDS011;45426;44.726;10.390;2023-07-02T13:12:00;5.80;;;3.13;;
59607;SDS011;45426;44.726;10.390;2023-07-02T13:14:25;7.20;;;3.50;;
59607;SDS011;45426;44.726;10.390;2023-07-02T13:16:51;6.32;;;3.67;;
59607;SDS011;45426;44.726;10.390;2023-07-02T13:19:19;7.47;;;3.88;;
59607;SDS011;45426;44.726;10.390;2023-07-02T13:21:46;7.25;;;3.55;;
59607;SDS011;45426;44.726;10.390;2023-07-02T13:24:12;6.78;;;3.60;;
59607;SDS011;45426;44.726;10.390;2023-07-02T13:26:40;6.03;;;3.50;;
59607;SDS011;45426;44.726;10.390;2023-07-02T13:29:05;5.78;;;3.65;;
59607;SDS011;45426;44.726;10.390;2023-07-02T13:31:31;7.75;;;4.00;;
59607;SDS011;45426;44.726;10.390;2023-07-02T13:33:56;7.72;;;3.63;;
59607;SDS011;45426;44.726;10.390;2023-07-02T13:36:29;6.70;;;3.55;;
59607;SDS011;45426;44.726;10.390;2023-07-02T13:38:57;7.43;;;3.83;;
59607;SDS011;45426;44.726;10.390;2023-07-02T13:41:23;5.88;;;3.70;;
59607;SDS011;45426;44.726;10.390;2023-07-02T13:43:49;6.45;;;3.50;;
59607;SDS011;45426;44.726;10.390;2023-07-02T13:46:23;6.43;;;3.55;;
59607;SDS011;45426;44.726;10.390;2023-07-02T13:49:14;6.63;;;3.85;;
59607;SDS011;45426;44.726;10.390;2023-07-02T13:51:40;7.28;;;4.03;;
59607;SDS011;45426;44.726;10.390;2023-07-02T13:54:13;5.97;;;3.70;;
59607;SDS011;45426;44.726;10.390;2023-07-02T13:56:39;6.50;;;3.42;;
59607;SDS011;45426;44.726;10.390;2023-07-02T13:59:24;6.18;;;3.78;;
59607;SDS011;45426;44.726;10.390;2023-07-02T14:01:54;7.22;;;3.53;;
59607;SDS011;45426;44.726;10.390;2023-07-02T14:04:20;5.40;;;3.40;;
59607;SDS011;45426;44.726;10.390;2023-07-02T14:06:45;5.88;;;3.38;;
59607;SDS011;45426;44.726;10.390;2023-07-02T14:09:38;5.25;;;3.60;;
59607;SDS011;45426;44.726;10.390;2023-07-02T14:12:25;5.50;;;3.50;;
59607;SDS011;45426;44.726;10.390;2023-07-02T14:14:53;6.90;;;3.60;;
59607;SDS011;45426;44.726;10.390;2023-07-02T14:17:29;5.50;;;3.47;;
59607;SDS011;45426;44.726;10.390;2023-07-02T14:20:06;5.60;;;3.45;;
59607;SDS011;45426;44.726;10.390;2023-07-02T14:22:53;6.10;;;3.60;;
59607;SDS011;45426;44.726;10.390;2023-07-02T14:25:21;6.53;;;3.60;;
59607;SDS011;45426;44.726;10.390;2023-07-02T14:27:48;5.32;;;3.42;;
59607;SDS011;45426;44.726;10.390;2023-07-02T14:30:28;7.07;;;3.90;;
59607;SDS011;45426;44.726;10.390;2023-07-02T14:33:01;7.00;;;3.83;;
59607;SDS011;45426;44.726;10.390;2023-07-02T14:35:33;7.18;;;3.67;;
59607;SDS011;45426;44.726;10.390;2023-07-02T14:38:08;7.18;;;3.63;;
59607;SDS011;45426;44.726;10.390;2023-07-02T14:40:46;6.30;;;3.47;;
59607;SDS011;45426;44.726;10.390;2023-07-02T14:46:43;6.85;;;3.50;;
59607;SDS011;45426;44.726;10.390;2023-07-02T14:49:36;5.95;;;3.50;;
59607;SDS011;45426;44.726;10.390;2023-07-02T14:52:21;6.53;;;3.50;;
59607;SDS011;45426;44.726;10.390;2023-07-02T14:54:49;6.10;;;3.38;;
59607;SDS011;45426;44.726;10.390;2023-07-02T14:57:26;6.45;;;3.70;;
59607;SDS011;45426;44.726;10.390;2023-07-02T14:59:52;6.55;;;3.70;;
59607;SDS011;45426;44.726;10.390;2023-07-02T15:02:27;5.43;;;3.30;;
59607;SDS011;45426;44.726;10.390;2023-07-02T15:04:55;5.35;;;3.40;;
59607;SDS011;45426;44.726;10.390;2023-07-02T15:07:24;5.00;;;3.35;;
59607;SDS011;45426;44.726;10.390;2023-07-02T15:10:01;6.90;;;3.72;;
59607;SDS011;45426;44.726;10.390;2023-07-02T15:12:50;7.53;;;3.35;;
59607;SDS011;45426;44.726;10.390;2023-07-02T15:15:35;7.38;;;3.78;;
59607;SDS011;45426;44.726;10.390;2023-07-02T15:18:08;5.97;;;3.58;;
59607;SDS011;45426;44.726;10.390;2023-07-02T15:20:43;7.00;;;3.70;;
59607;SDS011;45426;44.726;10.390;2023-07-02T15:26:38;6.32;;;3.60;;
59607;SDS011;45426;44.726;10.390;2023-07-02T15:29:20;6.43;;;3.78;;
59607;SDS011;45426;44.726;10.390;2023-07-02T15:31:49;5.38;;;3.75;;
59607;SDS011;45426;44.726;10.390;2023-07-02T15:34:31;5.50;;;3.50;;
59607;SDS011;45426;44.726;10.390;2023-07-02T15:37:00;6.93;;;3.40;;
59607;SDS011;45426;44.726;10.390;2023-07-02T15:39:30;6.70;;;3.70;;
59607;SDS011;45426;44.726;10.390;2023-07-02T15:41:58;5.47;;;3.30;;
59607;SDS011;45426;44.726;10.390;2023-07-02T15:47:15;6.50;;;3.75;;
59607;SDS011;45426;44.726;10.390;2023-07-02T15:49:40;6.03;;;3.80;;